sensor_id;sensor_type;location;lat;lon;timestamp;pressure;altitude;pressure_sealevel;temperature;humidity
58686;BME280;44465;53.206;-6.106;2023-04-10T00:00:06;100495.50;;;19.98;55.08
58686;BME280;44465;53.206;-6.106;2023-04-10T00:02:32;100470.59;;;19.80;54.98
58686;BME280;44465;53.206;-6.106;2023-04-10T00:04:59;100512.06;;;20.05;54.98
58686;BME280;44465;53.206;-6.106;2023-04-10T00:07:25;100489.78;;;19.89;54.90
58686;BME280;44465;53.206;-6.106;2023-04-10T00:09:50;100505.13;;;20.01;54.89
58686;BME280;44465;53.206;-6.106;2023-04-10T00:12:16;100500.75;;;20.00;54.96
58686;BME280;44465;53.206;-6.106;2023-04-10T00:14:42;100508.59;;;20.03;54.85
58686;BME280;44465;53.206;-6.106;2023-04-10T00:17:07;100467.94;;;19.80;55.02
58686;BME280;44465;53.206;-6.106;2023-04-10T00:19:33;100486.78;;;19.95;54.52
58686;BME280;44465;53.206;-6.106;2023-04-10T00:21:58;100464.22;;;19.83;54.75
58686;BME280;44465;53.206;-6.106;2023-04-10T00:24:24;100489.28;;;19.98;54.85
58686;BME280;44465;53.206;-6.106;2023-04-10T00:26:50;100493.59;;;20.01;54.62
58686;BME280;44465;53.206;-6.106;2023-04-10T00:29:15;100490.84;;;20.02;54.68
58686;BME280;44465;53.206;-6.106;2023-04-10T00:31:41;100477.19;;;19.91;55.02
58686;BME280;44465;53.206;-6.106;2023-04-10T00:34:09;100496.97;;;20.04;54.83
58686;BME280;44465;53.206;-6.106;2023-04-10T00:36:36;100491.94;;;19.98;54.47
58686;BME280;44465;53.206;-6.106;2023-04-10T00:39:01;100501.38;;;20.05;54.56
58686;BME280;44465;53.206;-6.106;2023-04-10T00:41:27;100457.34;;;19.79;54.54
58686;BME280;44465;53.206;-6.106;2023-04-10T00:43:56;100454.59;;;19.80;54.59
58686;BME280;44465;53.206;-6.106;2023-04-10T00:46:25;100476.16;;;19.93;54.42
58686;BME280;44465;53.206;-6.106;2023-04-10T00:48:52;100475.16;;;19.96;54.49
58686;BME280;44465;53.206;-6.106;2023-04-10T00:51:18;100482.03;;;20.00;54.42
58686;BME280;44465;53.206;-6.106;2023-04-10T00:53:46;100470.75;;;19.95;54.35
58686;BME280;44465;53.206;-6.106;2023-04-10T00:56:13;100472.47;;;19.96;54.29
58686;BME280;44465;53.206;-6.106;2023-04-10T00:58:38;100487.22;;;20.03;54.45
58686;BME280;44465;53.206;-6.106;2023-04-10T01:01:04;100462.22;;;19.88;54.58
58686;BME280;44465;53.206;-6.106;2023-04-10T01:03:30;100462.22;;;19.88;54.16
58686;BME280;44465;53.206;-6.106;2023-04-10T01:06:04;100451.66;;;19.85;54.55
58686;BME280;44465;53.206;-6.106;2023-04-10T01:11:52;100478.41;;;20.01;54.41
58686;BME280;44465;53.206;-6.106;2023-04-10T01:17:23;100477.63;;;19.99;54.11
58686;BME280;44465;53.206;-6.106;2023-04-10T01:20:03;100469.09;;;19.92;54.51
58686;BME280;44465;53.206;-6.106;2023-04-10T01:30:45;100440.41;;;19.96;53.94
58686;BME280;44465;53.206;-6.106;2023-04-10T01:33:15;100429.25;;;19.88;53.92
58686;BME280;44465;53.206;-6.106;2023-04-10T01:35:42;100439.28;;;20.00;54.06
58686;BME280;44465;53.206;-6.106;2023-04-10T01:38:14;100427.03;;;19.96;53.97
58686;BME280;44465;53.206;-6.106;2023-04-10T01:40:42;100397.88;;;19.75;54.08
58686;BME280;44465;53.206;-6.106;2023-04-10T01:43:14;100450.84;;;20.01;54.13
58686;BME280;44465;53.206;-6.106;2023-04-10T01:45:50;100417.81;;;19.86;53.84
58686;BME280;44465;53.206;-6.106;2023-04-10T01:48:16;100439.28;;;20.00;54.07
58686;BME280;44465;53.206;-6.106;2023-04-10T01:50:44;100399.78;;;19.73;53.79
58686;BME280;44465;53.206;-6.106;2023-04-10T01:53:10;100438.06;;;19.90;54.11
58686;BME280;44465;53.206;-6.106;2023-04-10T01:55:37;100436.00;;;19.95;54.37
58686;BME280;44465;53.206;-6.106;2023-04-10T01:58:05;100390.28;;;19.67;54.04
58686;BME280;44465;53.206;-6.106;2023-04-10T02:00:41;100415.38;;;19.81;53.91
58686;BME280;44465;53.206;-6.106;2023-04-10T02:03:09;100409.16;;;19.80;54.11
58686;BME280;44465;53.206;-6.106;2023-04-10T02:05:51;100401.94;;;19.82;53.96
58686;BME280;44465;53.206;-6.106;2023-04-10T02:08:27;100415.47;;;19.95;53.69
58686;BME280;44465;53.206;-6.106;2023-04-10T02:11:20;100417.19;;;19.96;53.54
58686;BME280;44465;53.206;-6.106;2023-04-10T02:13:46;100399.34;;;19.81;53.94
58686;BME280;44465;53.206;-6.106;2023-04-10T02:16:18;100403.25;;;19.91;53.91
58686;BME280;44465;53.206;-6.106;2023-04-10T02:18:45;100418.09;;;19.97;53.65
58686;BME280;44465;53.206;-6.106;2023-04-10T02:21:11;100367.88;;;19.70;53.67
58686;BME280;44465;53.206;-6.106;2023-04-10T02:23:39;100399.03;;;19.87;53.51
58686;BME280;44465;53.206;-6.106;2023-04-10T02:26:08;100408.41;;;19.94;53.54
58686;BME280;44465;53.206;-6.106;2023-04-10T02:28:37;100408.34;;;19.96;53.40
58686;BME280;44465;53.206;-6.106;2023-04-10T02:31:05;100364.84;;;19.76;53.39
58686;BME280;44465;53.206;-6.106;2023-04-10T02:33:31;100356.25;;;19.71;53.63
58686;BME280;44465;53.206;-6.106;2023-04-10T02:35:57;100371.66;;;19.82;54.03
58686;BME280;44465;53.206;-6.106;2023-04-10T02:38:24;100381.16;;;19.88;53.80
58686;BME280;44465;53.206;-6.106;2023-04-10T02:40:49;100385.66;;;19.87;53.80
58686;BME280;44465;53.206;-6.106;2023-04-10T02:43:16;100406.69;;;19.93;53.63
58686;BME280;44465;53.206;-6.106;2023-04-10T02:45:41;100363.56;;;19.67;53.80
58686;BME280;44465;53.206;-6.106;2023-04-10T02:48:10;100397.97;;;19.90;53.14
58686;BME280;44465;53.206;-6.106;2023-04-10T02:50:36;100392.47;;;19.93;53.41
58686;BME280;44465;53.206;-6.106;2023-04-10T02:53:01;100381.16;;;19.88;53.13
58686;BME280;44465;53.206;-6.106;2023-04-10T02:55:27;100355.72;;;19.64;53.16
58686;BME280;44465;53.206;-6.106;2023-04-10T02:57:53;100401.44;;;19.92;53.27
58686;BME280;44465;53.206;-6.106;2023-04-10T03:00:18;100390.91;;;19.89;53.04
58686;BME280;44465;53.206;-6.106;2023-04-10T03:03:08;100360.81;;;19.69;53.25
58686;BME280;44465;53.206;-6.106;2023-04-10T03:05:42;100365.31;;;19.68;53.46
58686;BME280;44465;53.206;-6.106;2023-04-10T03:08:07;100388.34;;;19.87;53.30
58686;BME280;44465;53.206;-6.106;2023-04-10T03:10:33;100350.28;;;19.66;53.40
58686;BME280;44465;53.206;-6.106;2023-04-10T03:12:58;100367.88;;;19.70;53.70
58686;BME280;44465;53.206;-6.106;2023-04-10T03:15:23;100378.19;;;19.76;53.44
58686;BME280;44465;53.206;-6.106;2023-04-10T03:17:49;100384.16;;;19.81;53.33
58686;BME280;44465;53.206;-6.106;2023-04-10T03:20:15;100394.34;;;19.91;53.56
58686;BME280;44465;53.206;-6.106;2023-04-10T03:22:40;100389.19;;;19.88;53.04
58686;BME280;44465;53.206;-6.106;2023-04-10T03:25:07;100389.97;;;19.90;53.21
58686;BME280;44465;53.206;-6.106;2023-04-10T03:27:33;100393.50;;;19.90;53.14
58686;BME280;44465;53.206;-6.106;2023-04-10T03:29:59;100398.91;;;19.89;53.01
58686;BME280;44465;53.206;-6.106;2023-04-10T03:32:27;100397.19;;;19.88;53.04
58686;BME280;44465;53.206;-6.106;2023-04-10T03:34:56;100391.69;;;19.91;53.00
58686;BME280;44465;53.206;-6.106;2023-04-10T03:37:22;100368.22;;;19.80;53.13
58686;BME280;44465;53.206;-6.106;2023-04-10T03:39:47;100387.38;;;19.88;53.23
58686;BME280;44465;53.206;-6.106;2023-04-10T03:42:13;100383.00;;;19.87;53.19
58686;BME280;44465;53.206;-6.106;2023-04-10T03:44:39;100352.53;;;19.74;53.01
58686;BME280;44465;53.206;-6.106;2023-04-10T03:47:05;100385.56;;;19.89;53.21
58686;BME280;44465;53.206;-6.106;2023-04-10T03:49:30;100371.66;;;19.82;52.86
58686;BME280;44465;53.206;-6.106;2023-04-10T03:52:02;100338.06;;;19.62;53.13
58686;BME280;44465;53.206;-6.106;2023-04-10T03:54:28;100329.28;;;19.60;53.12
58686;BME280;44465;53.206;-6.106;2023-04-10T03:56:53;100347.88;;;19.77;53.30
58686;BME280;44465;53.206;-6.106;2023-04-10T03:59:20;100361.84;;;19.82;53.22
58686;BME280;44465;53.206;-6.106;2023-04-10T04:01:46;100329.78;;;19.66;53.18
58686;BME280;44465;53.206;-6.106;2023-04-10T04:04:12;100314.97;;;19.61;52.96
58686;BME280;44465;53.206;-6.106;2023-04-10T04:06:46;100357.22;;;19.86;52.88
58686;BME280;44465;53.206;-6.106;2023-04-10T04:09:18;100320.31;;;19.61;52.85
58686;BME280;44465;53.206;-6.106;2023-04-10T04:12:10;100341.78;;;19.75;52.91
58686;BME280;44465;53.206;-6.106;2023-04-10T04:14:59;100335.66;;;19.73;52.73
58686;BME280;44465;53.206;-6.106;2023-04-10T04:17:43;100352.75;;;19.87;52.89
58686;BME280;44465;53.206;-6.106;2023-04-10T04:20:36;100358.78;;;19.90;53.18
58686;BME280;44465;53.206;-6.106;2023-04-10T04:23:12;100354.28;;;19.91;52.76
58686;BME280;44465;53.206;-6.106;2023-04-10T04:26:01;100331.84;;;19.77;53.05
58686;BME280;44465;53.206;-6.106;2023-04-10T04:28:29;100354.09;;;19.94;52.91
58686;BME280;44465;53.206;-6.106;2023-04-10T04:31:13;100342.63;;;19.92;52.81
58686;BME280;44465;53.206;-6.106;2023-04-10T04:33:58;100291.63;;;19.64;52.84
58686;BME280;44465;53.206;-6.106;2023-04-10T04:36:30;100313.13;;;19.77;52.55
58686;BME280;44465;53.206;-6.106;2023-04-10T04:39:14;100302.03;;;19.69;52.63
58686;BME280;44465;53.206;-6.106;2023-04-10T04:42:12;100338.25;;;19.91;52.77
58686;BME280;44465;53.206;-6.106;2023-04-10T04:45:07;100337.19;;;19.93;52.72
58686;BME280;44465;53.206;-6.106;2023-04-10T04:47:56;100333.56;;;19.94;52.91
58686;BME280;44465;53.206;-6.106;2023-04-10T04:50:47;100322.72;;;19.81;52.71
58686;BME280;44465;53.206;-6.106;2023-04-10T04:53:33;100333.56;;;19.94;52.59
58686;BME280;44465;53.206;-6.106;2023-04-10T04:56:23;100325.56;;;19.94;52.86
58686;BME280;44465;53.206;-6.106;2023-04-10T04:59:08;100318.59;;;19.92;52.68
58686;BME280;44465;53.206;-6.106;2023-04-10T05:01:53;100302.72;;;19.89;52.70
58686;BME280;44465;53.206;-6.106;2023-04-10T05:04:53;100293.75;;;19.90;52.49
58686;BME280;44465;53.206;-6.106;2023-04-10T05:07:42;100295.31;;;19.94;52.70
58686;BME280;44465;53.206;-6.106;2023-04-10T05:10:40;100290.81;;;19.94;52.52
58686;BME280;44465;53.206;-6.106;2023-04-10T05:13:20;100262.38;;;19.77;52.49
58686;BME280;44465;53.206;-6.106;2023-04-10T05:16:15;100270.50;;;19.76;52.80
58686;BME280;44465;53.206;-6.106;2023-04-10T05:18:59;100299.97;;;19.90;52.40
58686;BME280;44465;53.206;-6.106;2023-04-10T05:21:44;100269.19;;;19.67;52.47
58686;BME280;44465;53.206;-6.106;2023-04-10T05:24:22;100297.22;;;19.92;52.75
58686;BME280;44465;53.206;-6.106;2023-04-10T05:27:06;100316.69;;;19.94;52.40
58686;BME280;44465;53.206;-6.106;2023-04-10T05:30:04;100307.63;;;19.96;52.46
58686;BME280;44465;53.206;-6.106;2023-04-10T05:32:40;100312.41;;;19.91;52.42
58686;BME280;44465;53.206;-6.106;2023-04-10T05:35:26;100311.41;;;19.92;52.47
58686;BME280;44465;53.206;-6.106;2023-04-10T05:38:10;100315.81;;;19.93;52.43
58686;BME280;44465;53.206;-6.106;2023-04-10T05:40:49;100312.19;;;19.94;52.42
58686;BME280;44465;53.206;-6.106;2023-04-10T05:43:43;100317.47;;;19.96;52.42
58686;BME280;44465;53.206;-6.106;2023-04-10T05:46:27;100306.00;;;19.94;52.39
58686;BME280;44465;53.206;-6.106;2023-04-10T05:49:11;100316.53;;;19.97;52.62
58686;BME280;44465;53.206;-6.106;2023-04-10T05:52:03;100314.97;;;19.93;52.39
58686;BME280;44465;53.206;-6.106;2023-04-10T05:54:47;100312.13;;;19.96;52.13
58686;BME280;44465;53.206;-6.106;2023-04-10T05:57:31;100305.13;;;19.93;52.83
58686;BME280;44465;53.206;-6.106;2023-04-10T05:59:59;100322.81;;;19.96;52.21
58686;BME280;44465;53.206;-6.106;2023-04-10T06:02:56;100323.66;;;19.96;52.24
58686;BME280;44465;53.206;-6.106;2023-04-10T06:05:24;100310.13;;;19.83;52.47
58686;BME280;44465;53.206;-6.106;2023-04-10T06:07:57;100306.34;;;19.88;52.25
58686;BME280;44465;53.206;-6.106;2023-04-10T06:10:22;100311.19;;;19.97;52.24
58686;BME280;44465;53.206;-6.106;2023-04-10T06:12:48;100306.94;;;19.93;52.38
58686;BME280;44465;53.206;-6.106;2023-04-10T06:15:14;100319.00;;;20.00;52.21
58686;BME280;44465;53.206;-6.106;2023-04-10T06:17:41;100284.25;;;19.84;52.16
58686;BME280;44465;53.206;-6.106;2023-04-10T06:20:08;100303.06;;;19.98;52.26
58686;BME280;44465;53.206;-6.106;2023-04-10T06:22:33;100297.72;;;19.82;52.54
58686;BME280;44465;53.206;-6.106;2023-04-10T06:24:59;100316.53;;;19.97;52.12
58686;BME280;44465;53.206;-6.106;2023-04-10T06:27:25;100275.84;;;19.76;52.18
58686;BME280;44465;53.206;-6.106;2023-04-10T06:29:51;100290.41;;;19.86;52.10
58686;BME280;44465;53.206;-6.106;2023-04-10T06:32:20;100272.38;;;19.74;51.98
58686;BME280;44465;53.206;-6.106;2023-04-10T06:34:45;100304.94;;;19.96;52.35
58686;BME280;44465;53.206;-6.106;2023-04-10T06:37:11;100304.84;;;19.98;51.96
58686;BME280;44465;53.206;-6.106;2023-04-10T06:39:37;100306.78;;;19.96;52.14
58686;BME280;44465;53.206;-6.106;2023-04-10T06:42:03;100310.97;;;20.00;52.15
58686;BME280;44465;53.206;-6.106;2023-04-10T06:44:41;100317.09;;;20.02;52.18
58686;BME280;44465;53.206;-6.106;2023-04-10T06:47:07;100291.31;;;19.85;52.27
58686;BME280;44465;53.206;-6.106;2023-04-10T06:49:33;100304.09;;;19.96;51.99
58686;BME280;44465;53.206;-6.106;2023-04-10T06:51:58;100285.94;;;19.87;52.10
58686;BME280;44465;53.206;-6.106;2023-04-10T06:54:24;100265.81;;;19.79;51.92
58686;BME280;44465;53.206;-6.106;2023-04-10T06:56:49;100273.06;;;19.77;52.20
58686;BME280;44465;53.206;-6.106;2023-04-10T06:59:15;100298.75;;;19.96;52.16
58686;BME280;44465;53.206;-6.106;2023-04-10T07:01:40;100294.94;;;20.00;51.94
58686;BME280;44465;53.206;-6.106;2023-04-10T07:04:07;100294.16;;;19.98;52.20
58686;BME280;44465;53.206;-6.106;2023-04-10T07:06:33;100262.97;;;19.82;52.03
58686;BME280;44465;53.206;-6.106;2023-04-10T07:08:58;100282.13;;;19.91;51.94
58686;BME280;44465;53.206;-6.106;2023-04-10T07:11:24;100294.94;;;20.00;51.90
58686;BME280;44465;53.206;-6.106;2023-04-10T07:13:49;100296.00;;;19.97;52.21
58686;BME280;44465;53.206;-6.106;2023-04-10T07:16:17;100269.09;;;19.84;51.88
58686;BME280;44465;53.206;-6.106;2023-04-10T07:18:43;100296.00;;;19.97;52.01
58686;BME280;44465;53.206;-6.106;2023-04-10T07:21:09;100281.19;;;19.92;51.96
58686;BME280;44465;53.206;-6.106;2023-04-10T07:23:37;100307.25;;;20.03;51.97
58686;BME280;44465;53.206;-6.106;2023-04-10T07:26:03;100305.47;;;20.03;51.87
58686;BME280;44465;53.206;-6.106;2023-04-10T07:28:29;100281.34;;;19.89;51.82
58686;BME280;44465;53.206;-6.106;2023-04-10T07:30:54;100320.38;;;20.07;51.95
58686;BME280;44465;53.206;-6.106;2023-04-10T07:33:20;100305.63;;;20.00;51.87
58686;BME280;44465;53.206;-6.106;2023-04-10T07:35:46;100292.38;;;19.82;52.06
58686;BME280;44465;53.206;-6.106;2023-04-10T07:38:11;100318.31;;;19.96;51.82
58686;BME280;44465;53.206;-6.106;2023-04-10T07:40:37;100307.78;;;19.93;51.77
58686;BME280;44465;53.206;-6.106;2023-04-10T07:43:02;100287.13;;;19.81;51.98
58686;BME280;44465;53.206;-6.106;2023-04-10T07:45:28;100274.09;;;19.75;51.69
58686;BME280;44465;53.206;-6.106;2023-04-10T07:47:53;100317.28;;;19.99;51.68
58686;BME280;44465;53.206;-6.106;2023-04-10T07:50:19;100272.22;;;19.77;51.73
58686;BME280;44465;53.206;-6.106;2023-04-10T07:52:44;100283.16;;;19.88;51.74
58686;BME280;44465;53.206;-6.106;2023-04-10T07:55:10;100305.47;;;20.03;51.78
58686;BME280;44465;53.206;-6.106;2023-04-10T07:57:36;100309.94;;;20.03;51.61
58686;BME280;44465;53.206;-6.106;2023-04-10T08:00:02;100302.00;;;20.01;51.83
58686;BME280;44465;53.206;-6.106;2023-04-10T08:02:37;100285.47;;;19.94;51.76
58686;BME280;44465;53.206;-6.106;2023-04-10T08:05:05;100264.03;;;19.80;51.44
58686;BME280;44465;53.206;-6.106;2023-04-10T08:07:31;100269.09;;;19.84;51.61
58686;BME280;44465;53.206;-6.106;2023-04-10T08:09:56;100293.16;;;20.01;51.70
58686;BME280;44465;53.206;-6.106;2023-04-10T08:12:22;100266.69;;;19.80;51.71
58686;BME280;44465;53.206;-6.106;2023-04-10T08:14:47;100276.59;;;19.94;51.81
58686;BME280;44465;53.206;-6.106;2023-04-10T08:17:13;100281.41;;;20.03;51.71
58686;BME280;44465;53.206;-6.106;2023-04-10T08:19:42;100266.50;;;19.83;51.58
58686;BME280;44465;53.206;-6.106;2023-04-10T08:22:08;100266.25;;;19.88;51.84
58686;BME280;44465;53.206;-6.106;2023-04-10T08:24:33;100280.72;;;19.99;51.60
58686;BME280;44465;53.206;-6.106;2023-04-10T08:26:59;100299.94;;;20.06;51.58
58686;BME280;44465;53.206;-6.106;2023-04-10T08:29:25;100255.91;;;19.81;51.41
58686;BME280;44465;53.206;-6.106;2023-04-10T08:31:50;100284.25;;;20.00;51.66
58686;BME280;44465;53.206;-6.106;2023-04-10T08:34:16;100298.28;;;20.04;51.69
58686;BME280;44465;53.206;-6.106;2023-04-10T08:36:41;100292.88;;;20.05;51.59
58686;BME280;44465;53.206;-6.106;2023-04-10T08:39:07;100297.16;;;20.08;51.21
58686;BME280;44465;53.206;-6.106;2023-04-10T08:41:32;100254.97;;;19.82;51.22
58686;BME280;44465;53.206;-6.106;2023-04-10T08:43:58;100285.81;;;20.04;51.64
58686;BME280;44465;53.206;-6.106;2023-04-10T08:46:23;100255.66;;;19.86;51.61
58686;BME280;44465;53.206;-6.106;2023-04-10T08:49:04;100287.31;;;20.08;51.55
58686;BME280;44465;53.206;-6.106;2023-04-10T08:51:42;100281.03;;;20.09;51.51
58686;BME280;44465;53.206;-6.106;2023-04-10T08:54:14;100274.94;;;20.07;51.56
58686;BME280;44465;53.206;-6.106;2023-04-10T08:56:47;100263.00;;;20.13;51.56
58686;BME280;44465;53.206;-6.106;2023-04-10T08:59:14;100271.50;;;20.20;51.88
58686;BME280;44465;53.206;-6.106;2023-04-10T09:01:40;100273.69;;;20.13;51.89
58686;BME280;44465;53.206;-6.106;2023-04-10T09:04:05;100276.84;;;20.05;52.50
58686;BME280;44465;53.206;-6.106;2023-04-10T09:06:31;100271.59;;;20.18;53.03
58686;BME280;44465;53.206;-6.106;2023-04-10T09:08:56;100276.63;;;19.62;47.91
58686;BME280;44465;53.206;-6.106;2023-04-10T09:14:20;100271.66;;;18.40;47.06
58686;BME280;44465;53.206;-6.106;2023-04-10T09:16:46;100267.94;;;18.94;47.30
58686;BME280;44465;53.206;-6.106;2023-04-10T09:19:12;100267.78;;;19.13;47.50
58686;BME280;44465;53.206;-6.106;2023-04-10T09:21:37;100262.78;;;19.07;47.15
58686;BME280;44465;53.206;-6.106;2023-04-10T09:24:03;100258.47;;;19.04;47.65
58686;BME280;44465;53.206;-6.106;2023-04-10T09:26:30;100255.41;;;19.12;47.80
58686;BME280;44465;53.206;-6.106;2023-04-10T09:29:04;100255.28;;;18.31;45.17
58686;BME280;44465;53.206;-6.106;2023-04-10T09:31:37;100253.78;;;17.35;46.50
58686;BME280;44465;53.206;-6.106;2023-04-10T09:34:17;100255.38;;;17.20;46.58
58686;BME280;44465;53.206;-6.106;2023-04-10T09:36:56;100263.00;;;16.69;47.63
58686;BME280;44465;53.206;-6.106;2023-04-10T09:39:36;100253.31;;;16.87;48.23
58686;BME280;44465;53.206;-6.106;2023-04-10T09:42:05;100219.06;;;16.60;47.64
58686;BME280;44465;53.206;-6.106;2023-04-10T09:44:33;100240.66;;;16.73;48.05
58686;BME280;44465;53.206;-6.106;2023-04-10T09:47:16;100231.34;;;17.03;47.13
58686;BME280;44465;53.206;-6.106;2023-04-10T09:49:50;100260.53;;;17.24;46.41
58686;BME280;44465;53.206;-6.106;2023-04-10T09:52:30;100245.97;;;17.50;46.47
58686;BME280;44465;53.206;-6.106;2023-04-10T09:55:03;100256.91;;;17.44;46.67
58686;BME280;44465;53.206;-6.106;2023-04-10T09:57:31;100243.94;;;17.55;47.46
58686;BME280;44465;53.206;-6.106;2023-04-10T09:59:58;100240.72;;;17.48;46.49
58686;BME280;44465;53.206;-6.106;2023-04-10T10:02:25;100237.13;;;17.49;47.08
58686;BME280;44465;53.206;-6.106;2023-04-10T10:04:53;100240.19;;;17.59;46.79
58686;BME280;44465;53.206;-6.106;2023-04-10T10:07:21;100231.03;;;17.28;46.72
58686;BME280;44465;53.206;-6.106;2023-04-10T10:09:49;100249.41;;;17.52;47.19
58686;BME280;44465;53.206;-6.106;2023-04-10T10:13:01;100247.50;;;17.36;46.48
58686;BME280;44465;53.206;-6.106;2023-04-10T10:18:02;100251.56;;;17.26;47.10
58686;BME280;44465;53.206;-6.106;2023-04-10T10:20:29;100231.69;;;17.33;47.49
58686;BME280;44465;53.206;-6.106;2023-04-10T10:22:57;100251.78;;;17.02;47.02
58686;BME280;44465;53.206;-6.106;2023-04-10T10:25:23;100236.47;;;16.87;47.81
58686;BME280;44465;53.206;-6.106;2023-04-10T10:27:51;100249.16;;;16.82;48.34
58686;BME280;44465;53.206;-6.106;2023-04-10T10:30:18;100242.66;;;17.08;48.15
58686;BME280;44465;53.206;-6.106;2023-04-10T10:32:45;100242.69;;;17.06;48.08
58686;BME280;44465;53.206;-6.106;2023-04-10T10:35:12;100235.81;;;17.21;47.66
58686;BME280;44465;53.206;-6.106;2023-04-10T10:37:38;100243.13;;;17.16;47.75
58686;BME280;44465;53.206;-6.106;2023-04-10T10:40:18;100226.50;;;17.30;48.46
58686;BME280;44465;53.206;-6.106;2023-04-10T10:43:03;100248.81;;;17.09;48.07
58686;BME280;44465;53.206;-6.106;2023-04-10T10:48:01;100224.25;;;17.03;47.49
58686;BME280;44465;53.206;-6.106;2023-04-10T10:50:55;100221.81;;;16.99;48.04
58686;BME280;44465;53.206;-6.106;2023-04-10T10:56:33;100232.16;;;16.65;47.46
58686;BME280;44465;53.206;-6.106;2023-04-10T10:58:59;100220.75;;;16.82;47.53
58686;BME280;44465;53.206;-6.106;2023-04-10T11:01:26;100218.13;;;17.01;47.58
58686;BME280;44465;53.206;-6.106;2023-04-10T11:03:52;100221.50;;;17.05;47.88
58686;BME280;44465;53.206;-6.106;2023-04-10T11:06:19;100220.25;;;16.93;47.84
58686;BME280;44465;53.206;-6.106;2023-04-10T11:13:43;100218.97;;;16.83;48.14
58686;BME280;44465;53.206;-6.106;2023-04-10T11:21:25;100211.41;;;16.73;46.71
58686;BME280;44465;53.206;-6.106;2023-04-10T11:29:04;100204.56;;;16.87;46.88
58686;BME280;44465;53.206;-6.106;2023-04-10T11:31:31;100192.59;;;16.78;46.74
58686;BME280;44465;53.206;-6.106;2023-04-10T11:34:07;100205.91;;;16.97;47.23
58686;BME280;44465;53.206;-6.106;2023-04-10T11:36:36;100200.31;;;17.03;47.29
58686;BME280;44465;53.206;-6.106;2023-04-10T11:39:05;100199.91;;;16.92;47.61
58686;BME280;44465;53.206;-6.106;2023-04-10T11:41:33;100169.81;;;16.72;47.18
58686;BME280;44465;53.206;-6.106;2023-04-10T11:44:01;100170.97;;;16.67;47.02
58686;BME280;44465;53.206;-6.106;2023-04-10T11:46:28;100174.75;;;16.61;46.33
58686;BME280;44465;53.206;-6.106;2023-04-10T11:48:57;100166.44;;;16.69;46.93
58686;BME280;44465;53.206;-6.106;2023-04-10T11:51:23;100154.91;;;16.68;46.72
58686;BME280;44465;53.206;-6.106;2023-04-10T11:53:48;100184.88;;;16.91;47.21
58686;BME280;44465;53.206;-6.106;2023-04-10T11:56:18;100235.69;;;17.05;46.86
58686;BME280;44465;53.206;-6.106;2023-04-10T11:58:48;100193.94;;;16.49;47.37
58686;BME280;44465;53.206;-6.106;2023-04-10T12:01:14;100217.25;;;17.20;48.23
58686;BME280;44465;53.206;-6.106;2023-04-10T12:03:41;100234.00;;;17.59;48.05
58686;BME280;44465;53.206;-6.106;2023-04-10T12:06:12;100220.47;;;17.63;49.26
58686;BME280;44465;53.206;-6.106;2023-04-10T12:08:40;100229.81;;;17.35;48.76
58686;BME280;44465;53.206;-6.106;2023-04-10T12:11:07;100254.88;;;16.12;47.98
58686;BME280;44465;53.206;-6.106;2023-04-10T12:13:33;100289.81;;;15.58;48.15
58686;BME280;44465;53.206;-6.106;2023-04-10T12:16:06;100298.72;;;16.22;48.77
58686;BME280;44465;53.206;-6.106;2023-04-10T12:18:32;100311.25;;;15.76;48.34
58686;BME280;44465;53.206;-6.106;2023-04-10T12:20:59;100292.59;;;16.20;49.45
58686;BME280;44465;53.206;-6.106;2023-04-10T12:23:26;100290.91;;;16.80;50.48
58686;BME280;44465;53.206;-6.106;2023-04-10T12:25:52;100302.09;;;17.07;51.73
58686;BME280;44465;53.206;-6.106;2023-04-10T12:28:19;100260.28;;;16.50;48.82
58686;BME280;44465;53.206;-6.106;2023-04-10T12:30:49;100280.19;;;16.21;48.05
58686;BME280;44465;53.206;-6.106;2023-04-10T12:33:22;100288.28;;;16.18;47.90
58686;BME280;44465;53.206;-6.106;2023-04-10T12:35:47;100288.41;;;16.15;48.56
58686;BME280;44465;53.206;-6.106;2023-04-10T12:38:13;100281.78;;;16.25;49.10
58686;BME280;44465;53.206;-6.106;2023-04-10T12:40:56;100263.53;;;16.17;49.72
58686;BME280;44465;53.206;-6.106;2023-04-10T12:43:48;100276.75;;;16.19;48.64
58686;BME280;44465;53.206;-6.106;2023-04-10T12:46:28;100255.91;;;15.65;48.28
58686;BME280;44465;53.206;-6.106;2023-04-10T12:48:54;100213.97;;;15.73;48.67
58686;BME280;44465;53.206;-6.106;2023-04-10T12:54:07;100254.03;;;16.11;48.34
58686;BME280;44465;53.206;-6.106;2023-04-10T12:56:41;100237.41;;;16.27;48.12
58686;BME280;44465;53.206;-6.106;2023-04-10T12:59:06;100259.06;;;16.18;48.58
58686;BME280;44465;53.206;-6.106;2023-04-10T13:01:32;100253.16;;;16.11;49.02
58686;BME280;44465;53.206;-6.106;2023-04-10T13:03:57;100222.56;;;16.02;48.23
58686;BME280;44465;53.206;-6.106;2023-04-10T13:06:23;100203.88;;;16.04;49.06
58686;BME280;44465;53.206;-6.106;2023-04-10T13:08:48;100206.16;;;15.92;47.80
58686;BME280;44465;53.206;-6.106;2023-04-10T13:11:16;100253.03;;;16.35;48.18
58686;BME280;44465;53.206;-6.106;2023-04-10T13:13:42;100245.38;;;16.06;47.99
58686;BME280;44465;53.206;-6.106;2023-04-10T13:16:08;100216.66;;;15.95;48.21
58686;BME280;44465;53.206;-6.106;2023-04-10T13:18:36;100230.66;;;15.77;47.79
58686;BME280;44465;53.206;-6.106;2023-04-10T13:21:03;100224.69;;;14.83;48.31
58686;BME280;44465;53.206;-6.106;2023-04-10T13:23:29;100252.22;;;15.02;47.47
58686;BME280;44465;53.206;-6.106;2023-04-10T13:25:54;100209.72;;;14.80;47.38
58686;BME280;44465;53.206;-6.106;2023-04-10T13:28:21;100224.03;;;14.76;48.17
58686;BME280;44465;53.206;-6.106;2023-04-10T13:30:47;100222.22;;;15.23;48.14
58686;BME280;44465;53.206;-6.106;2023-04-10T13:33:12;100269.53;;;15.11;48.69
58686;BME280;44465;53.206;-6.106;2023-04-10T13:35:38;100281.13;;;15.32;48.27
58686;BME280;44465;53.206;-6.106;2023-04-10T13:38:06;100242.91;;;14.91;47.83
58686;BME280;44465;53.206;-6.106;2023-04-10T13:40:33;100228.28;;;14.56;47.62